Terminal Aerodrome Forecast
Issued by NWS Grand Forks, ND

Home | Current Version | Previous Version | Graphics & Text | Print | Product List | Glossary On
Versions: 1 2 3 4 5 6 7 8 9 10 11 12 13 14 15 16 17 18 19 20 21 22
936
FTUS43 KFGF 040536
TAFFAR
TAF
KFAR 040536Z 0406/0506 16014KT P6SM BKN008 OVC020
     FM040700 16013KT 5SM -SN OVC008
     FM041300 19010KT P6SM OVC008
     FM041800 25011KT P6SM BKN010
     FM042300 24008KT P6SM BKN015
     FM050100 22006KT P6SM BKN045=

USA.gov is the U.S. government's official web portal to all federal, state and local government web resources and services.